sensor_id;sensor_type;location;lat;lon;timestamp;P1;durP1;ratioP1;P2;durP2;ratioP2
53503;SDS011;39387;50.998;22.340;2022-07-06T00:02:19;6.13;;;5.15;;
53503;SDS011;39387;50.998;22.340;2022-07-06T00:04:47;8.20;;;5.18;;
53503;SDS011;39387;50.998;22.340;2022-07-06T00:07:15;7.10;;;4.93;;
53503;SDS011;39387;50.998;22.340;2022-07-06T00:09:42;7.57;;;5.45;;
53503;SDS011;39387;50.998;22.340;2022-07-06T00:12:10;6.93;;;5.03;;
53503;SDS011;39387;50.998;22.340;2022-07-06T00:14:37;6.60;;;5.07;;
53503;SDS011;39387;50.998;22.340;2022-07-06T00:17:04;6.18;;;5.13;;
53503;SDS011;39387;50.998;22.340;2022-07-06T00:19:32;5.68;;;4.95;;
53503;SDS011;39387;50.998;22.340;2022-07-06T00:21:59;5.68;;;4.80;;
53503;SDS011;39387;50.998;22.340;2022-07-06T00:24:27;6.63;;;5.13;;
53503;SDS011;39387;50.998;22.340;2022-07-06T00:26:55;7.40;;;5.90;;
53503;SDS011;39387;50.998;22.340;2022-07-06T00:29:22;8.10;;;5.68;;
53503;SDS011;39387;50.998;22.340;2022-07-06T00:31:49;6.40;;;5.15;;
53503;SDS011;39387;50.998;22.340;2022-07-06T00:34:16;9.27;;;5.82;;
53503;SDS011;39387;50.998;22.340;2022-07-06T00:36:44;8.65;;;6.07;;
53503;SDS011;39387;50.998;22.340;2022-07-06T00:39:11;6.65;;;5.03;;
53503;SDS011;39387;50.998;22.340;2022-07-06T00:41:40;6.53;;;5.80;;
53503;SDS011;39387;50.998;22.340;2022-07-06T00:44:08;5.70;;;5.07;;
53503;SDS011;39387;50.998;22.340;2022-07-06T00:46:35;6.50;;;4.53;;
53503;SDS011;39387;50.998;22.340;2022-07-06T00:49:03;6.25;;;4.70;;
53503;SDS011;39387;50.998;22.340;2022-07-06T00:51:31;5.43;;;4.57;;
53503;SDS011;39387;50.998;22.340;2022-07-06T00:53:59;5.25;;;4.53;;
53503;SDS011;39387;50.998;22.340;2022-07-06T00:56:29;4.43;;;3.78;;
53503;SDS011;39387;50.998;22.340;2022-07-06T00:58:59;4.68;;;3.80;;
53503;SDS011;39387;50.998;22.340;2022-07-06T01:01:26;4.55;;;3.50;;
53503;SDS011;39387;50.998;22.340;2022-07-06T01:03:54;4.28;;;3.60;;
53503;SDS011;39387;50.998;22.340;2022-07-06T01:06:22;5.90;;;4.13;;
53503;SDS011;39387;50.998;22.340;2022-07-06T01:08:49;5.47;;;4.30;;
53503;SDS011;39387;50.998;22.340;2022-07-06T01:11:17;5.82;;;4.47;;
53503;SDS011;39387;50.998;22.340;2022-07-06T01:13:45;6.63;;;4.93;;
53503;SDS011;39387;50.998;22.340;2022-07-06T01:16:15;6.75;;;4.72;;
53503;SDS011;39387;50.998;22.340;2022-07-06T01:18:42;5.68;;;4.32;;
53503;SDS011;39387;50.998;22.340;2022-07-06T01:21:11;6.07;;;4.90;;
53503;SDS011;39387;50.998;22.340;2022-07-06T01:23:40;5.60;;;4.35;;
53503;SDS011;39387;50.998;22.340;2022-07-06T01:26:10;5.63;;;4.80;;
53503;SDS011;39387;50.998;22.340;2022-07-06T01:28:37;6.07;;;4.53;;
53503;SDS011;39387;50.998;22.340;2022-07-06T01:31:05;5.32;;;4.65;;
53503;SDS011;39387;50.998;22.340;2022-07-06T01:33:32;8.90;;;4.57;;
53503;SDS011;39387;50.998;22.340;2022-07-06T01:35:59;6.18;;;4.97;;
53503;SDS011;39387;50.998;22.340;2022-07-06T01:38:28;5.78;;;4.35;;
53503;SDS011;39387;50.998;22.340;2022-07-06T01:40:55;4.30;;;3.90;;
53503;SDS011;39387;50.998;22.340;2022-07-06T01:43:22;4.70;;;4.05;;
53503;SDS011;39387;50.998;22.340;2022-07-06T01:45:50;5.65;;;4.32;;
53503;SDS011;39387;50.998;22.340;2022-07-06T01:48:17;5.88;;;4.20;;
53503;SDS011;39387;50.998;22.340;2022-07-06T01:50:44;5.60;;;4.15;;
53503;SDS011;39387;50.998;22.340;2022-07-06T01:53:11;5.15;;;3.95;;
53503;SDS011;39387;50.998;22.340;2022-07-06T01:55:40;4.88;;;3.92;;
53503;SDS011;39387;50.998;22.340;2022-07-06T01:58:07;4.78;;;3.88;;
53503;SDS011;39387;50.998;22.340;2022-07-06T02:00:35;6.18;;;3.75;;
53503;SDS011;39387;50.998;22.340;2022-07-06T02:03:02;3.80;;;3.40;;
53503;SDS011;39387;50.998;22.340;2022-07-06T02:05:29;4.50;;;3.40;;
53503;SDS011;39387;50.998;22.340;2022-07-06T02:07:57;3.88;;;3.17;;
53503;SDS011;39387;50.998;22.340;2022-07-06T02:10:24;3.38;;;3.00;;
53503;SDS011;39387;50.998;22.340;2022-07-06T02:12:52;3.60;;;2.83;;
53503;SDS011;39387;50.998;22.340;2022-07-06T02:15:19;3.35;;;2.92;;
53503;SDS011;39387;50.998;22.340;2022-07-06T02:17:47;4.95;;;2.90;;
53503;SDS011;39387;50.998;22.340;2022-07-06T02:20:14;4.93;;;3.22;;
53503;SDS011;39387;50.998;22.340;2022-07-06T02:22:41;3.65;;;2.80;;
53503;SDS011;39387;50.998;22.340;2022-07-06T02:25:09;3.08;;;2.50;;
53503;SDS011;39387;50.998;22.340;2022-07-06T02:27:36;2.22;;;1.98;;
53503;SDS011;39387;50.998;22.340;2022-07-06T02:30:05;2.25;;;2.05;;
53503;SDS011;39387;50.998;22.340;2022-07-06T02:32:33;3.28;;;2.10;;
53503;SDS011;39387;50.998;22.340;2022-07-06T02:35:00;2.15;;;1.95;;
53503;SDS011;39387;50.998;22.340;2022-07-06T02:37:27;2.20;;;2.00;;
53503;SDS011;39387;50.998;22.340;2022-07-06T02:39:55;2.25;;;2.00;;
53503;SDS011;39387;50.998;22.340;2022-07-06T02:42:22;1.83;;;1.70;;
53503;SDS011;39387;50.998;22.340;2022-07-06T02:44:49;3.45;;;2.25;;
53503;SDS011;39387;50.998;22.340;2022-07-06T02:47:18;2.35;;;2.00;;
53503;SDS011;39387;50.998;22.340;2022-07-06T02:49:45;3.90;;;1.85;;
53503;SDS011;39387;50.998;22.340;2022-07-06T02:52:12;3.15;;;1.98;;
53503;SDS011;39387;50.998;22.340;2022-07-06T02:54:40;3.70;;;2.40;;
53503;SDS011;39387;50.998;22.340;2022-07-06T02:57:07;3.03;;;2.60;;
53503;SDS011;39387;50.998;22.340;2022-07-06T02:59:34;2.63;;;2.30;;
53503;SDS011;39387;50.998;22.340;2022-07-06T03:02:02;3.10;;;2.38;;
53503;SDS011;39387;50.998;22.340;2022-07-06T03:04:31;2.55;;;2.20;;
53503;SDS011;39387;50.998;22.340;2022-07-06T03:06:58;3.30;;;2.38;;
53503;SDS011;39387;50.998;22.340;2022-07-06T03:09:26;3.90;;;2.45;;
53503;SDS011;39387;50.998;22.340;2022-07-06T03:11:53;3.08;;;2.30;;
53503;SDS011;39387;50.998;22.340;2022-07-06T03:14:20;3.17;;;2.45;;
53503;SDS011;39387;50.998;22.340;2022-07-06T03:16:48;2.92;;;2.50;;
53503;SDS011;39387;50.998;22.340;2022-07-06T03:19:15;3.05;;;2.75;;
53503;SDS011;39387;50.998;22.340;2022-07-06T03:21:43;3.42;;;3.00;;
53503;SDS011;39387;50.998;22.340;2022-07-06T03:24:11;4.28;;;3.10;;
53503;SDS011;39387;50.998;22.340;2022-07-06T03:26:38;4.63;;;3.80;;
53503;SDS011;39387;50.998;22.340;2022-07-06T03:29:05;5.20;;;4.00;;
53503;SDS011;39387;50.998;22.340;2022-07-06T03:31:32;5.65;;;3.92;;
53503;SDS011;39387;50.998;22.340;2022-07-06T03:34:00;6.15;;;4.57;;
53503;SDS011;39387;50.998;22.340;2022-07-06T03:36:27;5.97;;;4.63;;
53503;SDS011;39387;50.998;22.340;2022-07-06T03:38:56;7.38;;;5.60;;
53503;SDS011;39387;50.998;22.340;2022-07-06T03:41:23;6.10;;;5.25;;
53503;SDS011;39387;50.998;22.340;2022-07-06T03:43:51;6.40;;;4.95;;
53503;SDS011;39387;50.998;22.340;2022-07-06T03:46:18;7.65;;;5.55;;
53503;SDS011;39387;50.998;22.340;2022-07-06T03:48:45;5.90;;;4.85;;
53503;SDS011;39387;50.998;22.340;2022-07-06T03:51:13;9.18;;;5.65;;
53503;SDS011;39387;50.998;22.340;2022-07-06T03:53:40;7.38;;;6.30;;
53503;SDS011;39387;50.998;22.340;2022-07-06T03:56:09;6.32;;;5.45;;
53503;SDS011;39387;50.998;22.340;2022-07-06T03:58:55;7.10;;;5.10;;
53503;SDS011;39387;50.998;22.340;2022-07-06T04:01:22;6.50;;;5.30;;
53503;SDS011;39387;50.998;22.340;2022-07-06T04:03:49;7.32;;;5.15;;
53503;SDS011;39387;50.998;22.340;2022-07-06T04:06:17;6.25;;;4.93;;
53503;SDS011;39387;50.998;22.340;2022-07-06T04:08:44;5.85;;;4.75;;
53503;SDS011;39387;50.998;22.340;2022-07-06T04:11:13;5.03;;;4.05;;
53503;SDS011;39387;50.998;22.340;2022-07-06T04:13:41;6.70;;;3.97;;
53503;SDS011;39387;50.998;22.340;2022-07-06T04:16:08;4.68;;;4.07;;
53503;SDS011;39387;50.998;22.340;2022-07-06T04:18:35;5.18;;;3.58;;
53503;SDS011;39387;50.998;22.340;2022-07-06T04:21:02;5.78;;;3.80;;
53503;SDS011;39387;50.998;22.340;2022-07-06T04:23:30;3.72;;;3.28;;
53503;SDS011;39387;50.998;22.340;2022-07-06T04:25:57;4.13;;;3.08;;
53503;SDS011;39387;50.998;22.340;2022-07-06T04:28:26;4.10;;;3.30;;
53503;SDS011;39387;50.998;22.340;2022-07-06T04:30:53;4.97;;;3.33;;
53503;SDS011;39387;50.998;22.340;2022-07-06T04:33:20;3.85;;;3.42;;
53503;SDS011;39387;50.998;22.340;2022-07-06T04:35:48;3.90;;;3.42;;
53503;SDS011;39387;50.998;22.340;2022-07-06T04:38:15;5.25;;;3.75;;
53503;SDS011;39387;50.998;22.340;2022-07-06T04:40:42;5.38;;;3.70;;
53503;SDS011;39387;50.998;22.340;2022-07-06T04:43:12;4.43;;;3.58;;
53503;SDS011;39387;50.998;22.340;2022-07-06T04:45:41;5.20;;;3.45;;
53503;SDS011;39387;50.998;22.340;2022-07-06T04:48:08;4.97;;;4.03;;
53503;SDS011;39387;50.998;22.340;2022-07-06T04:50:35;5.32;;;3.55;;
53503;SDS011;39387;50.998;22.340;2022-07-06T04:53:02;4.80;;;3.67;;
53503;SDS011;39387;50.998;22.340;2022-07-06T04:55:29;4.65;;;4.18;;
53503;SDS011;39387;50.998;22.340;2022-07-06T04:57:57;4.53;;;3.35;;
53503;SDS011;39387;50.998;22.340;2022-07-06T05:00:24;4.13;;;3.42;;
53503;SDS011;39387;50.998;22.340;2022-07-06T05:02:53;3.80;;;3.40;;
53503;SDS011;39387;50.998;22.340;2022-07-06T05:05:20;4.28;;;3.30;;
53503;SDS011;39387;50.998;22.340;2022-07-06T05:07:48;5.63;;;3.60;;
53503;SDS011;39387;50.998;22.340;2022-07-06T05:10:15;5.97;;;3.72;;
53503;SDS011;39387;50.998;22.340;2022-07-06T05:12:42;4.38;;;3.55;;
53503;SDS011;39387;50.998;22.340;2022-07-06T05:15:10;4.45;;;3.50;;
53503;SDS011;39387;50.998;22.340;2022-07-06T05:17:37;4.07;;;3.45;;
53503;SDS011;39387;50.998;22.340;2022-07-06T05:20:07;4.78;;;3.53;;
53503;SDS011;39387;50.998;22.340;2022-07-06T05:25:20;4.18;;;3.60;;
53503;SDS011;39387;50.998;22.340;2022-07-06T05:27:47;4.00;;;3.60;;
53503;SDS011;39387;50.998;22.340;2022-07-06T05:30:14;4.38;;;3.17;;
53503;SDS011;39387;50.998;22.340;2022-07-06T05:32:42;7.30;;;3.28;;
53503;SDS011;39387;50.998;22.340;2022-07-06T05:35:10;4.50;;;3.80;;
53503;SDS011;39387;50.998;22.340;2022-07-06T05:37:37;7.80;;;3.78;;
53503;SDS011;39387;50.998;22.340;2022-07-06T05:40:05;3.90;;;3.50;;
53503;SDS011;39387;50.998;22.340;2022-07-06T05:42:33;4.95;;;3.55;;
53503;SDS011;39387;50.998;22.340;2022-07-06T05:45:00;3.70;;;3.40;;
53503;SDS011;39387;50.998;22.340;2022-07-06T05:47:29;3.92;;;3.53;;
53503;SDS011;39387;50.998;22.340;2022-07-06T05:50:15;5.55;;;3.38;;
53503;SDS011;39387;50.998;22.340;2022-07-06T05:52:43;3.47;;;3.10;;
53503;SDS011;39387;50.998;22.340;2022-07-06T05:55:11;3.65;;;3.28;;
53503;SDS011;39387;50.998;22.340;2022-07-06T05:57:39;5.25;;;3.70;;
53503;SDS011;39387;50.998;22.340;2022-07-06T06:00:07;5.50;;;3.78;;
53503;SDS011;39387;50.998;22.340;2022-07-06T06:02:38;6.15;;;4.18;;
53503;SDS011;39387;50.998;22.340;2022-07-06T06:05:06;5.18;;;4.10;;
53503;SDS011;39387;50.998;22.340;2022-07-06T06:07:35;4.55;;;3.85;;
53503;SDS011;39387;50.998;22.340;2022-07-06T06:10:04;4.90;;;3.50;;
53503;SDS011;39387;50.998;22.340;2022-07-06T06:12:32;3.78;;;3.38;;
53503;SDS011;39387;50.998;22.340;2022-07-06T06:14:59;3.33;;;2.90;;
53503;SDS011;39387;50.998;22.340;2022-07-06T06:17:26;3.65;;;3.08;;
53503;SDS011;39387;50.998;22.340;2022-07-06T06:19:54;3.80;;;3.40;;
53503;SDS011;39387;50.998;22.340;2022-07-06T06:22:21;3.08;;;2.78;;
53503;SDS011;39387;50.998;22.340;2022-07-06T06:24:50;2.97;;;2.67;;
53503;SDS011;39387;50.998;22.340;2022-07-06T06:27:17;5.38;;;2.95;;
53503;SDS011;39387;50.998;22.340;2022-07-06T06:29:45;2.97;;;2.72;;
53503;SDS011;39387;50.998;22.340;2022-07-06T06:32:12;2.72;;;2.50;;
53503;SDS011;39387;50.998;22.340;2022-07-06T06:34:40;4.75;;;3.00;;
53503;SDS011;39387;50.998;22.340;2022-07-06T06:37:08;2.40;;;2.20;;
53503;SDS011;39387;50.998;22.340;2022-07-06T06:39:35;2.60;;;2.40;;
53503;SDS011;39387;50.998;22.340;2022-07-06T06:42:04;2.90;;;2.60;;
53503;SDS011;39387;50.998;22.340;2022-07-06T06:44:32;3.67;;;2.47;;
53503;SDS011;39387;50.998;22.340;2022-07-06T06:46:59;2.47;;;2.28;;
53503;SDS011;39387;50.998;22.340;2022-07-06T06:49:26;2.55;;;2.35;;
53503;SDS011;39387;50.998;22.340;2022-07-06T06:51:53;2.58;;;2.38;;
53503;SDS011;39387;50.998;22.340;2022-07-06T06:54:21;2.10;;;1.95;;
53503;SDS011;39387;50.998;22.340;2022-07-06T06:56:48;1.70;;;1.60;;
53503;SDS011;39387;50.998;22.340;2022-07-06T06:59:17;2.40;;;2.20;;
53503;SDS011;39387;50.998;22.340;2022-07-06T07:01:44;1.52;;;1.42;;
53503;SDS011;39387;50.998;22.340;2022-07-06T07:04:11;2.15;;;2.00;;
53503;SDS011;39387;50.998;22.340;2022-07-06T07:06:39;2.65;;;1.88;;
53503;SDS011;39387;50.998;22.340;2022-07-06T07:09:06;2.13;;;1.77;;
53503;SDS011;39387;50.998;22.340;2022-07-06T07:11:33;1.73;;;1.63;;
53503;SDS011;39387;50.998;22.340;2022-07-06T07:14:01;2.95;;;1.73;;
53503;SDS011;39387;50.998;22.340;2022-07-06T07:16:29;2.15;;;1.95;;
53503;SDS011;39387;50.998;22.340;2022-07-06T07:18:57;2.35;;;1.70;;
53503;SDS011;39387;50.998;22.340;2022-07-06T07:21:24;2.08;;;1.70;;
53503;SDS011;39387;50.998;22.340;2022-07-06T07:23:51;1.55;;;1.45;;
53503;SDS011;39387;50.998;22.340;2022-07-06T07:26:18;2.10;;;1.90;;
53503;SDS011;39387;50.998;22.340;2022-07-06T07:28:46;2.15;;;1.67;;
53503;SDS011;39387;50.998;22.340;2022-07-06T07:31:13;3.35;;;1.83;;
53503;SDS011;39387;50.998;22.340;2022-07-06T07:33:42;1.70;;;1.60;;
53503;SDS011;39387;50.998;22.340;2022-07-06T07:36:09;2.30;;;2.10;;
53503;SDS011;39387;50.998;22.340;2022-07-06T07:38:36;2.10;;;1.90;;
53503;SDS011;39387;50.998;22.340;2022-07-06T07:41:04;2.67;;;1.60;;
53503;SDS011;39387;50.998;22.340;2022-07-06T07:43:31;2.65;;;2.03;;
53503;SDS011;39387;50.998;22.340;2022-07-06T07:45:59;2.33;;;2.13;;
53503;SDS011;39387;50.998;22.340;2022-07-06T07:48:26;2.00;;;1.80;;
53503;SDS011;39387;50.998;22.340;2022-07-06T07:50:55;2.47;;;2.08;;
53503;SDS011;39387;50.998;22.340;2022-07-06T07:53:22;2.55;;;2.15;;
53503;SDS011;39387;50.998;22.340;2022-07-06T07:55:49;1.98;;;1.83;;
53503;SDS011;39387;50.998;22.340;2022-07-06T07:58:17;2.33;;;2.00;;
53503;SDS011;39387;50.998;22.340;2022-07-06T08:00:45;2.92;;;1.90;;
53503;SDS011;39387;50.998;22.340;2022-07-06T08:03:12;3.20;;;1.95;;
53503;SDS011;39387;50.998;22.340;2022-07-06T08:05:39;2.42;;;2.00;;
53503;SDS011;39387;50.998;22.340;2022-07-06T08:08:08;2.30;;;2.05;;
53503;SDS011;39387;50.998;22.340;2022-07-06T08:10:35;2.50;;;2.30;;
53503;SDS011;39387;50.998;22.340;2022-07-06T08:13:03;2.67;;;2.25;;
53503;SDS011;39387;50.998;22.340;2022-07-06T08:15:32;2.20;;;2.00;;
53503;SDS011;39387;50.998;22.340;2022-07-06T08:18:00;2.15;;;2.00;;
53503;SDS011;39387;50.998;22.340;2022-07-06T08:20:27;2.28;;;1.80;;
53503;SDS011;39387;50.998;22.340;2022-07-06T08:22:54;1.50;;;1.40;;
53503;SDS011;39387;50.998;22.340;2022-07-06T08:25:23;1.83;;;1.60;;
53503;SDS011;39387;50.998;22.340;2022-07-06T08:27:50;1.70;;;1.60;;
53503;SDS011;39387;50.998;22.340;2022-07-06T08:30:18;2.17;;;1.63;;
53503;SDS011;39387;50.998;22.340;2022-07-06T08:32:45;2.80;;;1.70;;
53503;SDS011;39387;50.998;22.340;2022-07-06T08:35:13;4.10;;;2.00;;
53503;SDS011;39387;50.998;22.340;2022-07-06T08:37:40;2.47;;;1.83;;
53503;SDS011;39387;50.998;22.340;2022-07-06T08:40:07;1.95;;;1.70;;
53503;SDS011;39387;50.998;22.340;2022-07-06T08:42:37;2.42;;;1.70;;
53503;SDS011;39387;50.998;22.340;2022-07-06T08:45:05;2.25;;;1.40;;
53503;SDS011;39387;50.998;22.340;2022-07-06T08:47:34;1.90;;;1.40;;
53503;SDS011;39387;50.998;22.340;2022-07-06T08:50:03;1.67;;;1.33;;
53503;SDS011;39387;50.998;22.340;2022-07-06T08:52:30;1.95;;;1.42;;
53503;SDS011;39387;50.998;22.340;2022-07-06T08:54:58;1.50;;;1.40;;
53503;SDS011;39387;50.998;22.340;2022-07-06T08:57:26;1.33;;;1.20;;
53503;SDS011;39387;50.998;22.340;2022-07-06T08:59:55;1.20;;;1.10;;
53503;SDS011;39387;50.998;22.340;2022-07-06T09:02:23;1.20;;;1.10;;
53503;SDS011;39387;50.998;22.340;2022-07-06T09:04:53;1.40;;;1.30;;
53503;SDS011;39387;50.998;22.340;2022-07-06T09:07:21;1.38;;;1.20;;
53503;SDS011;39387;50.998;22.340;2022-07-06T09:09:49;1.05;;;1.05;;
53503;SDS011;39387;50.998;22.340;2022-07-06T09:12:17;1.30;;;1.20;;
53503;SDS011;39387;50.998;22.340;2022-07-06T09:14:44;1.10;;;1.10;;
53503;SDS011;39387;50.998;22.340;2022-07-06T09:17:12;2.97;;;1.48;;
53503;SDS011;39387;50.998;22.340;2022-07-06T09:19:40;1.52;;;1.30;;
53503;SDS011;39387;50.998;22.340;2022-07-06T09:22:07;1.40;;;1.30;;
53503;SDS011;39387;50.998;22.340;2022-07-06T09:24:37;1.65;;;1.40;;
53503;SDS011;39387;50.998;22.340;2022-07-06T09:27:14;1.50;;;1.33;;
53503;SDS011;39387;50.998;22.340;2022-07-06T09:29:42;1.48;;;1.30;;
53503;SDS011;39387;50.998;22.340;2022-07-06T09:32:10;1.52;;;1.42;;
53503;SDS011;39387;50.998;22.340;2022-07-06T09:34:41;4.20;;;1.30;;
53503;SDS011;39387;50.998;22.340;2022-07-06T09:37:09;2.38;;;1.50;;
53503;SDS011;39387;50.998;22.340;2022-07-06T09:39:36;1.60;;;1.50;;
53503;SDS011;39387;50.998;22.340;2022-07-06T09:42:05;1.65;;;1.40;;
53503;SDS011;39387;50.998;22.340;2022-07-06T09:44:34;2.28;;;1.60;;
53503;SDS011;39387;50.998;22.340;2022-07-06T09:47:03;1.85;;;1.40;;
53503;SDS011;39387;50.998;22.340;2022-07-06T09:49:32;2.13;;;1.27;;
53503;SDS011;39387;50.998;22.340;2022-07-06T09:52:01;1.85;;;1.27;;
53503;SDS011;39387;50.998;22.340;2022-07-06T09:54:32;2.28;;;1.90;;
53503;SDS011;39387;50.998;22.340;2022-07-06T09:56:59;1.80;;;1.45;;
53503;SDS011;39387;50.998;22.340;2022-07-06T09:59:27;1.50;;;1.40;;
53503;SDS011;39387;50.998;22.340;2022-07-06T10:01:56;1.52;;;1.42;;
53503;SDS011;39387;50.998;22.340;2022-07-06T10:04:24;1.60;;;1.50;;
53503;SDS011;39387;50.998;22.340;2022-07-06T10:06:53;2.05;;;1.67;;
53503;SDS011;39387;50.998;22.340;2022-07-06T10:09:22;1.50;;;1.40;;
53503;SDS011;39387;50.998;22.340;2022-07-06T10:11:50;3.17;;;1.50;;
53503;SDS011;39387;50.998;22.340;2022-07-06T10:14:20;2.35;;;1.60;;
53503;SDS011;39387;50.998;22.340;2022-07-06T10:16:49;2.55;;;2.35;;
53503;SDS011;39387;50.998;22.340;2022-07-06T10:19:17;3.00;;;2.78;;
53503;SDS011;39387;50.998;22.340;2022-07-06T10:21:45;3.17;;;2.72;;
53503;SDS011;39387;50.998;22.340;2022-07-06T10:24:13;3.15;;;2.60;;
53503;SDS011;39387;50.998;22.340;2022-07-06T10:26:42;3.35;;;2.50;;
53503;SDS011;39387;50.998;22.340;2022-07-06T10:29:09;2.92;;;2.10;;
53503;SDS011;39387;50.998;22.340;2022-07-06T10:31:37;2.00;;;1.90;;
53503;SDS011;39387;50.998;22.340;2022-07-06T10:34:06;2.60;;;2.40;;
53503;SDS011;39387;50.998;22.340;2022-07-06T10:36:36;3.85;;;2.30;;
53503;SDS011;39387;50.998;22.340;2022-07-06T10:41:53;3.28;;;2.72;;
53503;SDS011;39387;50.998;22.340;2022-07-06T10:44:22;3.72;;;2.92;;
53503;SDS011;39387;50.998;22.340;2022-07-06T10:46:51;4.57;;;3.90;;
53503;SDS011;39387;50.998;22.340;2022-07-06T10:49:20;3.30;;;3.00;;
53503;SDS011;39387;50.998;22.340;2022-07-06T10:51:47;3.55;;;3.25;;
53503;SDS011;39387;50.998;22.340;2022-07-06T10:54:16;3.75;;;3.13;;
53503;SDS011;39387;50.998;22.340;2022-07-06T10:56:45;3.40;;;3.10;;
53503;SDS011;39387;50.998;22.340;2022-07-06T10:59:14;4.20;;;3.60;;
53503;SDS011;39387;50.998;22.340;2022-07-06T11:04:38;3.15;;;2.60;;
53503;SDS011;39387;50.998;22.340;2022-07-06T11:07:08;3.92;;;2.85;;
53503;SDS011;39387;50.998;22.340;2022-07-06T11:09:36;3.35;;;2.22;;
53503;SDS011;39387;50.998;22.340;2022-07-06T11:12:16;2.47;;;2.28;;
53503;SDS011;39387;50.998;22.340;2022-07-06T11:14:47;2.20;;;2.00;;
53503;SDS011;39387;50.998;22.340;2022-07-06T11:17:15;2.63;;;2.20;;
53503;SDS011;39387;50.998;22.340;2022-07-06T11:19:54;2.75;;;2.25;;
53503;SDS011;39387;50.998;22.340;2022-07-06T11:22:23;2.40;;;2.20;;
53503;SDS011;39387;50.998;22.340;2022-07-06T11:24:50;3.42;;;2.40;;
53503;SDS011;39387;50.998;22.340;2022-07-06T11:27:18;2.42;;;2.22;;
53503;SDS011;39387;50.998;22.340;2022-07-06T11:29:47;2.60;;;2.40;;
53503;SDS011;39387;50.998;22.340;2022-07-06T11:32:14;2.78;;;1.90;;
53503;SDS011;39387;50.998;22.340;2022-07-06T11:34:42;2.22;;;1.83;;
53503;SDS011;39387;50.998;22.340;2022-07-06T11:37:11;1.98;;;1.88;;
53503;SDS011;39387;50.998;22.340;2022-07-06T11:39:40;2.10;;;2.00;;
53503;SDS011;39387;50.998;22.340;2022-07-06T11:42:08;3.05;;;2.10;;
53503;SDS011;39387;50.998;22.340;2022-07-06T11:44:37;1.95;;;1.85;;
53503;SDS011;39387;50.998;22.340;2022-07-06T11:47:06;3.33;;;1.73;;
53503;SDS011;39387;50.998;22.340;2022-07-06T11:49:34;2.47;;;1.70;;
53503;SDS011;39387;50.998;22.340;2022-07-06T11:52:04;2.13;;;1.92;;
53503;SDS011;39387;50.998;22.340;2022-07-06T11:56:59;2.28;;;2.10;;
53503;SDS011;39387;50.998;22.340;2022-07-06T11:59:30;2.50;;;1.90;;
53503;SDS011;39387;50.998;22.340;2022-07-06T12:01:58;1.95;;;1.85;;
53503;SDS011;39387;50.998;22.340;2022-07-06T12:04:27;3.10;;;1.98;;
53503;SDS011;39387;50.998;22.340;2022-07-06T12:06:55;2.15;;;2.05;;
53503;SDS011;39387;50.998;22.340;2022-07-06T12:09:29;2.15;;;1.75;;
53503;SDS011;39387;50.998;22.340;2022-07-06T12:11:57;2.28;;;2.08;;
53503;SDS011;39387;50.998;22.340;2022-07-06T12:14:27;2.10;;;1.90;;
53503;SDS011;39387;50.998;22.340;2022-07-06T12:16:55;2.28;;;2.08;;
53503;SDS011;39387;50.998;22.340;2022-07-06T12:19:22;1.95;;;1.77;;
53503;SDS011;39387;50.998;22.340;2022-07-06T12:21:51;2.13;;;1.80;;
53503;SDS011;39387;50.998;22.340;2022-07-06T12:24:19;1.92;;;1.60;;
53503;SDS011;39387;50.998;22.340;2022-07-06T12:26:48;1.85;;;1.70;;
53503;SDS011;39387;50.998;22.340;2022-07-06T12:29:15;1.88;;;1.73;;
53503;SDS011;39387;50.998;22.340;2022-07-06T12:31:43;1.90;;;1.67;;
53503;SDS011;39387;50.998;22.340;2022-07-06T12:34:13;1.70;;;1.60;;
53503;SDS011;39387;50.998;22.340;2022-07-06T12:36:42;1.90;;;1.80;;
53503;SDS011;39387;50.998;22.340;2022-07-06T12:39:12;2.20;;;2.00;;
53503;SDS011;39387;50.998;22.340;2022-07-06T12:41:44;3.30;;;1.95;;
53503;SDS011;39387;50.998;22.340;2022-07-06T12:44:12;2.00;;;1.80;;
53503;SDS011;39387;50.998;22.340;2022-07-06T12:46:40;3.63;;;1.90;;
53503;SDS011;39387;50.998;22.340;2022-07-06T12:49:12;2.08;;;1.88;;
53503;SDS011;39387;50.998;22.340;2022-07-06T12:51:57;1.80;;;1.70;;
53503;SDS011;39387;50.998;22.340;2022-07-06T12:54:28;1.85;;;1.70;;
53503;SDS011;39387;50.998;22.340;2022-07-06T12:57:06;2.10;;;1.80;;
53503;SDS011;39387;50.998;22.340;2022-07-06T12:59:37;2.13;;;1.93;;
53503;SDS011;39387;50.998;22.340;2022-07-06T13:02:06;2.67;;;2.00;;
53503;SDS011;39387;50.998;22.340;2022-07-06T13:04:35;2.30;;;1.80;;
53503;SDS011;39387;50.998;22.340;2022-07-06T13:07:03;2.00;;;1.75;;
53503;SDS011;39387;50.998;22.340;2022-07-06T13:09:32;2.20;;;1.90;;
53503;SDS011;39387;50.998;22.340;2022-07-06T13:11:59;1.85;;;1.75;;
53503;SDS011;39387;50.998;22.340;2022-07-06T13:14:27;2.63;;;1.98;;
53503;SDS011;39387;50.998;22.340;2022-07-06T13:16:54;1.95;;;1.70;;
53503;SDS011;39387;50.998;22.340;2022-07-06T13:19:21;1.98;;;1.77;;
53503;SDS011;39387;50.998;22.340;2022-07-06T13:21:49;1.63;;;1.48;;
53503;SDS011;39387;50.998;22.340;2022-07-06T13:24:16;3.60;;;1.60;;
53503;SDS011;39387;50.998;22.340;2022-07-06T13:26:45;1.65;;;1.50;;
53503;SDS011;39387;50.998;22.340;2022-07-06T13:29:13;1.75;;;1.50;;
53503;SDS011;39387;50.998;22.340;2022-07-06T13:31:40;1.50;;;1.40;;
53503;SDS011;39387;50.998;22.340;2022-07-06T13:34:07;2.20;;;1.65;;
53503;SDS011;39387;50.998;22.340;2022-07-06T13:36:35;1.85;;;1.60;;
53503;SDS011;39387;50.998;22.340;2022-07-06T13:39:02;1.92;;;1.60;;
53503;SDS011;39387;50.998;22.340;2022-07-06T13:41:30;1.90;;;1.70;;
53503;SDS011;39387;50.998;22.340;2022-07-06T13:43:59;1.73;;;1.55;;
53503;SDS011;39387;50.998;22.340;2022-07-06T13:46:27;1.73;;;1.50;;
53503;SDS011;39387;50.998;22.340;2022-07-06T13:48:55;1.88;;;1.50;;
53503;SDS011;39387;50.998;22.340;2022-07-06T13:51:23;1.55;;;1.45;;
53503;SDS011;39387;50.998;22.340;2022-07-06T13:53:50;1.73;;;1.63;;
53503;SDS011;39387;50.998;22.340;2022-07-06T13:56:17;1.30;;;1.20;;
53503;SDS011;39387;50.998;22.340;2022-07-06T13:58:45;2.00;;;1.58;;
53503;SDS011;39387;50.998;22.340;2022-07-06T14:01:13;1.95;;;1.40;;
53503;SDS011;39387;50.998;22.340;2022-07-06T14:03:40;1.67;;;1.45;;
53503;SDS011;39387;50.998;22.340;2022-07-06T14:06:08;1.40;;;1.30;;
53503;SDS011;39387;50.998;22.340;2022-07-06T14:08:36;1.40;;;1.30;;
53503;SDS011;39387;50.998;22.340;2022-07-06T14:11:04;2.38;;;1.63;;
53503;SDS011;39387;50.998;22.340;2022-07-06T14:13:33;2.17;;;1.42;;
53503;SDS011;39387;50.998;22.340;2022-07-06T14:16:00;1.48;;;1.25;;
53503;SDS011;39387;50.998;22.340;2022-07-06T14:18:30;1.92;;;1.48;;
53503;SDS011;39387;50.998;22.340;2022-07-06T14:20:57;2.53;;;1.48;;
53503;SDS011;39387;50.998;22.340;2022-07-06T14:23:25;1.58;;;1.48;;
53503;SDS011;39387;50.998;22.340;2022-07-06T14:25:53;1.50;;;1.40;;
53503;SDS011;39387;50.998;22.340;2022-07-06T14:28:21;1.83;;;1.50;;
53503;SDS011;39387;50.998;22.340;2022-07-06T14:30:48;1.50;;;1.17;;
53503;SDS011;39387;50.998;22.340;2022-07-06T14:33:16;2.42;;;1.40;;
53503;SDS011;39387;50.998;22.340;2022-07-06T14:35:46;1.92;;;1.20;;
53503;SDS011;39387;50.998;22.340;2022-07-06T14:38:16;1.05;;;1.05;;
53503;SDS011;39387;50.998;22.340;2022-07-06T14:40:44;1.23;;;1.13;;
53503;SDS011;39387;50.998;22.340;2022-07-06T14:43:13;3.70;;;1.52;;
53503;SDS011;39387;50.998;22.340;2022-07-06T14:45:40;2.30;;;1.48;;
53503;SDS011;39387;50.998;22.340;2022-07-06T14:48:10;3.58;;;1.30;;
53503;SDS011;39387;50.998;22.340;2022-07-06T14:50:37;2.42;;;1.50;;